Terminal Aerodrome Forecast
Issued by NWS

Home | Current Version | Previous Version | Text Only | Print | Product List | Glossary On
Versions: 1 2 3 4 5 6 7 8 9 10 11 12 13 14
000
FTUS46 KLOX 312300 RRA
TAFSBA
TAF
KSBA 312340Z 0100/0124 25008KT P6SM FEW080
     FM010400 VRB03KT P6SM SKC
     FM010900 11005KT P6SM SKC
     FM011800 18005KT P6SM SKC
     FM012100 24007KT P6SM SKC=

USA.gov is the U.S. government's official web portal to all federal, state and local government web resources and services.